createdAt,value
2023-05-13T00:00:38.743Z,63.06
2023-05-13T00:03:05.810Z,63.16
2023-05-13T00:05:32.788Z,63.17
2023-05-13T00:08:07.256Z,63.09
2023-05-13T00:10:35.276Z,63.13
2023-05-13T00:13:02.985Z,63.06
2023-05-13T00:15:30.195Z,63.01
2023-05-13T00:17:57.689Z,62.87
2023-05-13T00:20:24.872Z,62.92
2023-05-13T00:22:52.128Z,62.93
2023-05-13T00:25:19.171Z,62.94
2023-05-13T00:27:46.219Z,63.03
2023-05-13T00:30:13.381Z,63.17
2023-05-13T00:32:40.440Z,63.27
2023-05-13T00:35:09.407Z,63.20
2023-05-13T00:37:36.578Z,63.16
2023-05-13T00:40:04.029Z,63.22
2023-05-13T00:42:31.062Z,63.09
2023-05-13T00:44:57.967Z,63.08
2023-05-13T00:47:25.542Z,63.18
2023-05-13T00:49:52.625Z,63.15
2023-05-13T00:52:19.953Z,63.19
2023-05-13T00:54:48.054Z,63.18
2023-05-13T00:57:15.131Z,63.24
2023-05-13T00:59:42.048Z,63.53
2023-05-13T01:02:08.914Z,63.64
2023-05-13T01:04:52.507Z,63.51
2023-05-13T01:07:31.842Z,63.51
2023-05-13T01:10:14.161Z,63.55
2023-05-13T01:12:43.996Z,63.47
2023-05-13T01:15:15.484Z,63.49
2023-05-13T01:17:50.816Z,63.49
2023-05-13T01:20:22.743Z,63.57
2023-05-13T01:22:50.993Z,63.63
2023-05-13T01:25:18.037Z,63.82
2023-05-13T01:27:45.385Z,63.84
2023-05-13T01:30:13.591Z,63.77
2023-05-13T01:32:40.819Z,63.73
2023-05-13T01:35:10.660Z,63.72
2023-05-13T01:37:41.880Z,63.57
2023-05-13T01:40:30.536Z,63.59
2023-05-13T01:43:00.959Z,63.61
2023-05-13T01:45:30.039Z,63.51
2023-05-13T01:47:57.506Z,63.41
2023-05-13T01:50:25.390Z,63.61
2023-05-13T01:52:52.740Z,63.75
2023-05-13T01:55:20.014Z,63.78
2023-05-13T01:57:48.601Z,63.74
2023-05-13T02:00:16.131Z,63.68
2023-05-13T02:02:43.388Z,63.68
2023-05-13T02:05:10.549Z,63.76
2023-05-13T02:07:38.398Z,63.72
2023-05-13T02:10:06.335Z,63.68
2023-05-13T02:12:33.716Z,63.69
2023-05-13T02:15:01.590Z,63.80
2023-05-13T02:17:30.912Z,63.97
2023-05-13T02:19:58.211Z,64.08
2023-05-13T02:22:25.804Z,64.14
2023-05-13T02:24:52.721Z,64.01
2023-05-13T02:27:21.042Z,63.98
2023-05-13T02:29:48.087Z,63.89
2023-05-13T02:32:15.397Z,63.87
2023-05-13T02:34:42.784Z,63.80
2023-05-13T02:37:09.678Z,63.82
2023-05-13T02:39:38.281Z,63.94
2023-05-13T02:42:05.776Z,63.92
2023-05-13T02:44:32.962Z,64.07
2023-05-13T02:47:01.096Z,64.12
2023-05-13T02:49:28.321Z,64.20
2023-05-13T02:51:55.604Z,64.06
2023-05-13T02:54:27.472Z,64.09
2023-05-13T02:56:54.385Z,63.99
2023-05-13T02:59:21.966Z,63.97
2023-05-13T03:01:49.595Z,63.89
2023-05-13T03:04:16.566Z,63.82
2023-05-13T03:06:43.472Z,63.88
2023-05-13T03:09:10.461Z,63.86
2023-05-13T03:11:37.405Z,63.99
2023-05-13T03:14:05.796Z,64.06
2023-05-13T03:16:32.981Z,64.09
2023-05-13T03:19:00.287Z,64.08
2023-05-13T03:21:27.580Z,64.02
2023-05-13T03:23:54.609Z,63.89
2023-05-13T03:26:22.564Z,63.96
2023-05-13T03:28:49.575Z,63.95
2023-05-13T03:31:16.801Z,64.03
2023-05-13T03:33:44.164Z,64.11
2023-05-13T03:36:12.314Z,64.24
2023-05-13T03:38:39.619Z,64.35
2023-05-13T03:41:07.488Z,64.28
2023-05-13T03:43:34.598Z,64.19
2023-05-13T03:46:02.898Z,64.05
2023-05-13T03:48:30.077Z,64.12
2023-05-13T03:50:58.156Z,64.12
2023-05-13T03:53:25.270Z,64.08
2023-05-13T03:55:53.214Z,64.09
2023-05-13T03:58:21.915Z,64.11
2023-05-13T04:00:49.674Z,63.99
2023-05-13T04:03:17.631Z,64.11
2023-05-13T04:05:48.148Z,63.95
2023-05-13T04:08:15.747Z,63.95
2023-05-13T04:10:43.418Z,63.91
2023-05-13T04:13:10.399Z,63.87
2023-05-13T04:15:37.388Z,63.80
2023-05-13T04:18:05.832Z,63.87
2023-05-13T04:20:32.729Z,63.81
2023-05-13T04:22:59.712Z,63.76
2023-05-13T04:25:26.668Z,63.81
2023-05-13T04:27:53.857Z,63.85
2023-05-13T04:30:31.831Z,63.96
2023-05-13T04:32:58.882Z,63.90
2023-05-13T04:35:26.108Z,63.90
2023-05-13T04:37:57.426Z,63.95
2023-05-13T04:40:24.783Z,63.88
2023-05-13T04:42:55.120Z,63.86
2023-05-13T04:45:26.866Z,63.86
2023-05-13T04:47:55.630Z,63.79
2023-05-13T04:50:24.607Z,63.92
2023-05-13T04:52:54.884Z,63.91
2023-05-13T04:55:22.960Z,63.91
2023-05-13T04:57:50.667Z,63.88
2023-05-13T05:00:18.132Z,63.87
2023-05-13T05:02:47.160Z,63.82
2023-05-13T05:05:16.716Z,63.79
2023-05-13T05:07:45.578Z,63.78
2023-05-13T05:10:12.929Z,63.78
2023-05-13T05:12:44.329Z,63.73
2023-05-13T05:15:15.911Z,63.82
2023-05-13T05:17:45.779Z,63.86
2023-05-13T05:20:13.808Z,63.83
2023-05-13T05:22:42.302Z,63.84
2023-05-13T05:25:11.811Z,63.90
2023-05-13T05:27:39.147Z,63.97
2023-05-13T05:30:07.096Z,63.99
2023-05-13T05:32:35.763Z,63.90
2023-05-13T05:35:05.605Z,63.85
2023-05-13T05:37:33.565Z,63.90
2023-05-13T05:40:00.842Z,63.83
2023-05-13T05:42:28.808Z,63.75
2023-05-13T05:44:55.792Z,63.97
2023-05-13T05:47:23.546Z,64.07
2023-05-13T05:49:50.495Z,63.97
2023-05-13T05:52:19.114Z,63.94
2023-05-13T05:54:46.141Z,63.83
2023-05-13T05:57:13.171Z,63.90
2023-05-13T05:59:40.391Z,63.79
2023-05-13T06:02:07.723Z,63.83
2023-05-13T06:04:35.936Z,63.81
2023-05-13T06:07:03.009Z,63.89
2023-05-13T06:09:31.100Z,63.98
2023-05-13T06:11:58.183Z,64.07
2023-05-13T06:14:25.342Z,64.05
2023-05-13T06:16:53.627Z,64.12
2023-05-13T06:19:21.990Z,64.14
2023-05-13T06:21:48.941Z,64.09
2023-05-13T06:24:15.986Z,64.15
2023-05-13T06:26:44.567Z,64.27
2023-05-13T06:29:14.608Z,64.23
2023-05-13T06:31:41.655Z,64.37
2023-05-13T06:34:08.695Z,64.58
2023-05-13T06:36:35.948Z,64.85
2023-05-13T06:39:05.556Z,65.26
2023-05-13T06:41:34.853Z,65.26
2023-05-13T06:44:07.841Z,64.87
2023-05-13T06:46:39.559Z,64.81
2023-05-13T06:49:06.794Z,64.91
2023-05-13T06:51:35.009Z,64.99
2023-05-13T06:54:01.919Z,64.93
2023-05-13T06:56:30.428Z,64.85
2023-05-13T06:58:57.346Z,64.87
2023-05-13T07:01:24.286Z,64.87
2023-05-13T07:03:51.302Z,64.64
2023-05-13T07:06:18.747Z,64.50
2023-05-13T07:08:45.630Z,64.37
2023-05-13T07:11:12.824Z,64.45
2023-05-13T07:13:40.143Z,64.63
2023-05-13T07:16:07.542Z,65.44
2023-05-13T07:18:34.992Z,65.77
2023-05-13T07:21:02.202Z,66.38
2023-05-13T07:23:29.150Z,66.51
2023-05-13T07:25:56.591Z,66.64
2023-05-13T07:28:28.933Z,66.62
2023-05-13T07:30:55.967Z,66.63
2023-05-13T07:33:23.021Z,66.40
2023-05-13T07:35:50.438Z,66.65
2023-05-13T07:38:18.684Z,66.82
2023-05-13T07:40:45.964Z,66.87
2023-05-13T07:43:14.486Z,66.77
2023-05-13T07:45:42.548Z,66.60
2023-05-13T07:48:10.372Z,66.64
2023-05-13T07:50:38.927Z,66.63
2023-05-13T07:53:06.355Z,66.80
2023-05-13T07:55:33.397Z,67.01
2023-05-13T07:58:00.650Z,67.08
2023-05-13T08:00:27.703Z,67.01
2023-05-13T08:02:55.075Z,66.84
2023-05-13T08:05:25.904Z,66.72
2023-05-13T08:07:53.041Z,66.70
2023-05-13T08:10:20.101Z,66.56
2023-05-13T08:12:51.840Z,66.56
2023-05-13T08:15:22.041Z,66.98
2023-05-13T08:17:49.432Z,66.80
2023-05-13T08:20:16.365Z,66.68
2023-05-13T08:22:44.285Z,66.62
2023-05-13T08:25:13.217Z,66.44
2023-05-13T08:27:40.170Z,66.54
2023-05-13T08:30:08.077Z,66.58
2023-05-13T08:32:35.113Z,66.46
2023-05-13T08:35:02.168Z,66.69
2023-05-13T08:37:35.138Z,66.86
2023-05-13T08:40:02.879Z,66.90
2023-05-13T08:42:33.799Z,66.93
2023-05-13T08:45:05.815Z,66.93
2023-05-13T08:48:00.315Z,67.03
2023-05-13T08:50:29.404Z,67.14
2023-05-13T08:52:58.386Z,67.47
2023-05-13T08:55:26.949Z,67.78
2023-05-13T08:57:55.033Z,67.82
2023-05-13T09:00:22.276Z,67.86
2023-05-13T09:02:51.234Z,67.88
2023-05-13T09:05:23.039Z,67.83
2023-05-13T09:07:53.567Z,67.89
2023-05-13T09:10:22.372Z,68.10
2023-05-13T09:12:51.123Z,68.06
2023-05-13T09:15:26.642Z,67.94
2023-05-13T09:17:58.809Z,67.85
2023-05-13T09:20:26.950Z,67.54
2023-05-13T09:22:54.986Z,67.38
2023-05-13T09:25:26.865Z,67.32
2023-05-13T09:27:59.035Z,67.35
2023-05-13T09:30:35.928Z,67.20
2023-05-13T09:33:08.617Z,67.16
2023-05-13T09:35:44.339Z,67.29
2023-05-13T09:38:18.770Z,67.40
2023-05-13T09:40:57.363Z,67.33
2023-05-13T09:43:35.429Z,67.35
2023-05-13T09:46:05.890Z,67.24
2023-05-13T09:48:35.697Z,67.53
2023-05-13T09:51:03.002Z,67.39
2023-05-13T09:53:31.786Z,67.29
2023-05-13T09:56:03.515Z,67.33
2023-05-13T09:58:31.358Z,67.10
2023-05-13T10:01:03.861Z,66.89
2023-05-13T10:03:33.163Z,66.98
2023-05-13T10:06:03.371Z,67.03
2023-05-13T10:08:31.645Z,66.94
2023-05-13T10:10:59.917Z,66.83
2023-05-13T10:13:29.434Z,66.77
2023-05-13T10:15:57.145Z,66.74
2023-05-13T10:18:24.556Z,66.63
2023-05-13T10:20:53.967Z,66.57
2023-05-13T10:23:22.765Z,66.64
2023-05-13T10:25:52.327Z,66.68
2023-05-13T10:28:20.544Z,66.73
2023-05-13T10:30:54.972Z,66.86
2023-05-13T10:33:23.531Z,66.69
2023-05-13T10:36:05.002Z,66.49
2023-05-13T10:38:53.775Z,66.59
2023-05-13T10:41:54.930Z,66.26
2023-05-13T10:44:23.791Z,66.15
2023-05-13T10:46:51.096Z,66.06
2023-05-13T10:49:18.099Z,66.09
2023-05-13T10:51:52.580Z,66.07
2023-05-13T10:54:29.586Z,66.03
2023-05-13T10:56:58.401Z,65.82
2023-05-13T10:59:25.864Z,65.83
2023-05-13T11:01:53.735Z,65.87
2023-05-13T11:04:21.684Z,65.90
2023-05-13T11:06:50.946Z,66.02
2023-05-13T11:09:20.906Z,66.01
2023-05-13T11:11:49.675Z,65.92
2023-05-13T11:14:18.684Z,66.00
2023-05-13T11:17:07.871Z,66.06
2023-05-13T11:19:46.989Z,66.09
2023-05-13T11:22:16.827Z,65.99
2023-05-13T11:25:05.878Z,66.10
2023-05-13T11:27:43.746Z,66.46
2023-05-13T11:30:29.934Z,66.48
2023-05-13T11:33:04.080Z,66.22
2023-05-13T11:35:32.996Z,66.12
2023-05-13T11:38:05.191Z,66.11
2023-05-13T11:40:33.444Z,66.13
2023-05-13T11:43:01.981Z,66.13
2023-05-13T11:45:30.411Z,66.15
2023-05-13T11:47:58.311Z,66.13
2023-05-13T11:50:32.502Z,66.34
2023-05-13T11:53:01.725Z,66.32
2023-05-13T11:55:31.688Z,66.37
2023-05-13T11:58:00.246Z,66.16
2023-05-13T12:00:32.711Z,65.98
2023-05-13T12:03:01.702Z,65.98
2023-05-13T12:05:29.270Z,65.87
2023-05-13T12:07:59.286Z,65.95
2023-05-13T12:10:26.738Z,65.94
2023-05-13T12:12:54.926Z,65.87
2023-05-13T12:15:22.968Z,65.97
2023-05-13T12:17:51.738Z,66.00
2023-05-13T12:20:23.525Z,66.11
2023-05-13T12:22:53.258Z,66.26
2023-05-13T12:25:36.884Z,66.26
2023-05-13T12:28:19.708Z,66.46
2023-05-13T12:30:51.774Z,66.09
2023-05-13T12:33:21.571Z,66.02
2023-05-13T12:35:50.809Z,65.82
2023-05-13T12:38:20.397Z,65.68
2023-05-13T12:40:48.986Z,65.70
2023-05-13T12:43:17.781Z,65.61
2023-05-13T12:45:47.630Z,65.55
2023-05-13T12:48:17.371Z,65.49
2023-05-13T12:50:44.927Z,65.59
2023-05-13T12:53:12.084Z,65.64
2023-05-13T12:55:40.344Z,65.58
2023-05-13T12:58:11.425Z,65.55
2023-05-13T13:00:38.580Z,65.51
2023-05-13T13:03:06.334Z,65.46
2023-05-13T13:05:33.832Z,65.47
2023-05-13T13:08:05.481Z,65.46
2023-05-13T13:10:32.986Z,65.51
2023-05-13T13:12:59.892Z,65.61
2023-05-13T13:15:26.899Z,65.61
2023-05-13T13:17:54.064Z,65.57
2023-05-13T13:20:21.376Z,65.75
2023-05-13T13:22:48.433Z,65.81
2023-05-13T13:25:15.576Z,65.89
2023-05-13T13:27:42.528Z,66.15
2023-05-13T13:30:09.678Z,66.24
2023-05-13T13:32:36.742Z,66.45
2023-05-13T13:35:05.712Z,66.18
2023-05-13T13:37:32.855Z,65.98
2023-05-13T13:39:59.847Z,65.80
2023-05-13T13:42:40.248Z,65.85
2023-05-13T13:45:10.861Z,65.80
2023-05-13T13:47:38.593Z,65.72
2023-05-13T13:50:06.624Z,65.85
2023-05-13T13:52:33.552Z,65.90
2023-05-13T13:55:00.714Z,65.88
2023-05-13T13:57:27.711Z,65.92
2023-05-13T13:59:54.615Z,65.83
2023-05-13T14:02:22.130Z,65.72
2023-05-13T14:04:49.115Z,65.69
2023-05-13T14:07:16.185Z,65.65
2023-05-13T14:09:43.118Z,65.50
2023-05-13T14:12:10.370Z,65.44
2023-05-13T14:14:37.412Z,65.55
2023-05-13T14:17:04.397Z,65.65
2023-05-13T14:19:31.304Z,65.60
2023-05-13T14:21:58.761Z,65.62
2023-05-13T14:24:25.929Z,65.66
2023-05-13T14:26:53.293Z,65.63
2023-05-13T14:29:20.517Z,65.58
2023-05-13T14:31:48.724Z,65.74
2023-05-13T14:34:16.708Z,65.71
2023-05-13T14:36:43.659Z,65.69
2023-05-13T14:39:11.267Z,65.62
2023-05-13T14:41:39.620Z,65.70
2023-05-13T14:44:06.730Z,65.71
2023-05-13T14:46:37.307Z,65.62
2023-05-13T14:49:04.406Z,65.52
2023-05-13T14:51:33.892Z,65.55
2023-05-13T14:54:00.977Z,65.52
2023-05-13T14:56:28.592Z,65.41
2023-05-13T14:58:55.734Z,65.30
2023-05-13T15:01:23.640Z,65.54
2023-05-13T15:03:50.659Z,65.88
2023-05-13T15:06:17.663Z,66.04
2023-05-13T15:08:44.634Z,66.00
2023-05-13T15:11:12.989Z,66.27
2023-05-13T15:13:40.279Z,66.62
2023-05-13T15:16:07.525Z,66.62
2023-05-13T15:18:35.107Z,66.85
2023-05-13T15:21:02.174Z,66.68
2023-05-13T15:23:29.146Z,66.75
2023-05-13T15:25:56.230Z,66.82
2023-05-13T15:28:23.173Z,66.66
2023-05-13T15:30:50.126Z,66.70
2023-05-13T15:33:17.297Z,66.74
2023-05-13T15:35:44.414Z,66.87
2023-05-13T15:38:11.681Z,66.94
2023-05-13T15:40:39.209Z,66.93
2023-05-13T15:43:06.230Z,67.04
2023-05-13T15:45:33.235Z,67.03
2023-05-13T15:48:00.224Z,67.11
2023-05-13T15:50:27.704Z,67.12
2023-05-13T15:52:54.962Z,67.14
2023-05-13T15:55:23.166Z,67.23
2023-05-13T15:57:50.632Z,67.20
2023-05-13T16:00:19.361Z,66.91
2023-05-13T16:02:46.468Z,66.68
2023-05-13T16:05:15.738Z,66.60
2023-05-13T16:07:43.077Z,66.34
2023-05-13T16:10:10.529Z,66.15
2023-05-13T16:12:37.872Z,66.08
2023-05-13T16:15:05.129Z,65.95
2023-05-13T16:17:32.055Z,65.95
2023-05-13T16:20:00.078Z,65.84
2023-05-13T16:22:30.536Z,65.98
2023-05-13T16:25:06.637Z,65.79
2023-05-13T16:27:36.095Z,65.79
2023-05-13T16:30:04.678Z,65.69
2023-05-13T16:32:31.683Z,65.65
2023-05-13T16:34:58.965Z,65.61
2023-05-13T16:37:25.887Z,65.57
2023-05-13T16:39:52.900Z,65.66
2023-05-13T16:42:20.000Z,65.70
2023-05-13T16:44:48.953Z,65.67
2023-05-13T16:47:16.041Z,65.65
2023-05-13T16:49:43.727Z,65.62
2023-05-13T16:52:10.804Z,65.51
2023-05-13T16:54:38.218Z,65.59
2023-05-13T16:57:07.530Z,65.57
2023-05-13T16:59:37.913Z,65.75
2023-05-13T17:02:06.675Z,65.89
2023-05-13T17:04:35.465Z,65.82
2023-05-13T17:07:05.850Z,65.83
2023-05-13T17:09:36.085Z,65.77
2023-05-13T17:12:03.191Z,65.78
2023-05-13T17:14:30.136Z,65.66
2023-05-13T17:16:57.216Z,65.62
2023-05-13T17:19:24.250Z,65.69
2023-05-13T17:21:51.281Z,65.79
2023-05-13T17:24:18.942Z,65.84
2023-05-13T17:26:45.885Z,65.76
2023-05-13T17:29:12.820Z,65.88
2023-05-13T17:31:40.032Z,65.79
2023-05-13T17:34:07.647Z,65.77
2023-05-13T17:36:36.250Z,65.78
2023-05-13T17:39:04.508Z,65.84
2023-05-13T17:41:31.353Z,65.90
2023-05-13T17:43:58.231Z,66.07
2023-05-13T17:46:25.859Z,66.02
2023-05-13T17:48:52.888Z,66.05
2023-05-13T17:51:20.052Z,66.07
2023-05-13T17:53:47.112Z,65.89
2023-05-13T17:56:14.477Z,65.74
2023-05-13T17:58:41.596Z,65.58
2023-05-13T18:01:09.669Z,65.64
2023-05-13T18:03:36.739Z,65.91
2023-05-13T18:06:05.146Z,65.97
2023-05-13T18:08:32.147Z,66.03
2023-05-13T18:10:59.104Z,66.00
2023-05-13T18:13:25.995Z,65.93
2023-05-13T18:15:53.322Z,65.93
2023-05-13T18:18:20.673Z,66.16
2023-05-13T18:20:47.690Z,65.99
2023-05-13T18:23:14.937Z,66.17
2023-05-13T18:25:54.676Z,66.25
2023-05-13T18:28:23.060Z,66.20
2023-05-13T18:30:50.115Z,66.36
2023-05-13T18:33:21.976Z,66.15
2023-05-13T18:35:49.225Z,66.16
2023-05-13T18:38:16.366Z,66.07
2023-05-13T18:40:43.237Z,66.21
2023-05-13T18:43:10.131Z,66.18
2023-05-13T18:45:37.139Z,66.29
2023-05-13T18:48:04.745Z,66.55
2023-05-13T18:50:31.771Z,66.65
2023-05-13T18:52:58.773Z,66.50
2023-05-13T18:55:25.771Z,66.39
2023-05-13T18:57:52.644Z,66.48
2023-05-13T19:00:19.715Z,66.40
2023-05-13T19:02:46.779Z,66.37
2023-05-13T19:05:13.794Z,66.11
2023-05-13T19:07:41.568Z,66.24
2023-05-13T19:10:08.713Z,66.14
2023-05-13T19:12:35.657Z,66.07
2023-05-13T19:15:02.810Z,66.15
2023-05-13T19:17:31.826Z,66.13
2023-05-13T19:20:00.992Z,66.03
2023-05-13T19:22:28.043Z,66.03
2023-05-13T19:24:55.186Z,66.27
2023-05-13T19:27:22.246Z,66.31
2023-05-13T19:29:49.613Z,66.47
2023-05-13T19:32:16.942Z,66.35
2023-05-13T19:34:43.912Z,66.38
2023-05-13T19:37:11.099Z,66.33
2023-05-13T19:39:38.000Z,66.41
2023-05-13T19:42:05.241Z,66.20
2023-05-13T19:44:32.389Z,66.32
2023-05-13T19:46:59.765Z,66.27
2023-05-13T19:49:26.716Z,66.30
2023-05-13T19:51:53.735Z,66.30
2023-05-13T19:54:20.748Z,66.12
2023-05-13T19:56:47.738Z,66.06
2023-05-13T19:59:14.902Z,66.16
2023-05-13T20:01:42.243Z,66.09
2023-05-13T20:04:09.562Z,66.01
2023-05-13T20:06:37.075Z,66.11
2023-05-13T20:09:04.192Z,66.09
2023-05-13T20:11:32.167Z,66.10
2023-05-13T20:13:59.717Z,66.09
2023-05-13T20:16:27.491Z,66.00
2023-05-13T20:18:54.726Z,66.11
2023-05-13T20:21:21.752Z,66.00
2023-05-13T20:23:48.650Z,66.09
2023-05-13T20:26:15.685Z,66.33
2023-05-13T20:28:42.826Z,66.21
2023-05-13T20:31:10.102Z,66.12
2023-05-13T20:33:37.096Z,66.06
2023-05-13T20:36:05.001Z,66.03
2023-05-13T20:38:32.391Z,65.99
2023-05-13T20:41:00.318Z,66.07
2023-05-13T20:43:27.276Z,66.19
2023-05-13T20:45:54.735Z,66.25
2023-05-13T20:48:21.669Z,66.39
2023-05-13T20:50:48.534Z,66.34
2023-05-13T20:53:15.760Z,66.28
2023-05-13T20:55:42.732Z,66.41
2023-05-13T20:58:09.624Z,66.44
2023-05-13T21:00:36.581Z,66.46
2023-05-13T21:03:03.643Z,66.07
2023-05-13T21:05:31.393Z,65.85
2023-05-13T21:07:58.282Z,65.31
2023-05-13T21:10:25.506Z,65.12
2023-05-13T21:12:52.650Z,64.65
2023-05-13T21:15:20.121Z,64.43
2023-05-13T21:17:47.453Z,64.38
2023-05-13T21:20:14.601Z,64.10
2023-05-13T21:22:41.731Z,64.06
2023-05-13T21:25:09.400Z,63.94
2023-05-13T21:27:36.453Z,63.79
2023-05-13T21:30:04.570Z,63.38
2023-05-13T21:32:31.767Z,63.39
2023-05-13T21:34:58.678Z,63.42
2023-05-13T21:37:26.546Z,63.28
2023-05-13T21:39:54.843Z,63.24
2023-05-13T21:42:21.934Z,63.07
2023-05-13T21:44:48.878Z,63.09
2023-05-13T21:47:16.140Z,62.96
2023-05-13T21:49:44.169Z,62.85
2023-05-13T21:52:11.876Z,62.73
2023-05-13T21:54:39.275Z,62.85
2023-05-13T21:57:07.840Z,62.85
2023-05-13T21:59:34.789Z,62.71
2023-05-13T22:02:01.684Z,62.70
2023-05-13T22:04:28.686Z,62.62
2023-05-13T22:06:55.582Z,62.50
2023-05-13T22:09:22.604Z,62.51
2023-05-13T22:11:49.473Z,62.40
2023-05-13T22:14:16.381Z,62.41
2023-05-13T22:16:43.362Z,62.34
2023-05-13T22:19:10.873Z,62.24
2023-05-13T22:21:38.398Z,62.20
2023-05-13T22:24:06.527Z,62.23
2023-05-13T22:26:33.434Z,62.14
2023-05-13T22:29:00.560Z,62.28
2023-05-13T22:31:27.585Z,62.15
2023-05-13T22:33:54.683Z,62.04
2023-05-13T22:36:21.917Z,61.99
2023-05-13T22:38:49.180Z,61.96
2023-05-13T22:41:18.985Z,61.91
2023-05-13T22:43:46.125Z,62.01
2023-05-13T22:46:13.249Z,61.83
2023-05-13T22:48:40.710Z,61.91
2023-05-13T22:51:07.781Z,61.79
2023-05-13T22:53:34.906Z,61.82
2023-05-13T22:56:02.520Z,61.90
2023-05-13T22:58:29.636Z,61.98
2023-05-13T23:00:56.944Z,61.81
2023-05-13T23:03:24.094Z,61.79
2023-05-13T23:05:51.820Z,61.81
2023-05-13T23:08:18.860Z,61.66
2023-05-13T23:10:46.609Z,61.60
2023-05-13T23:13:14.345Z,61.66
2023-05-13T23:15:41.659Z,61.50
2023-05-13T23:18:08.770Z,61.63
2023-05-13T23:20:35.932Z,61.70
2023-05-13T23:23:02.908Z,61.72
2023-05-13T23:25:30.054Z,61.51
2023-05-13T23:27:57.150Z,61.58
2023-05-13T23:30:24.338Z,61.50
2023-05-13T23:32:51.653Z,61.50
2023-05-13T23:35:18.729Z,61.59
2023-05-13T23:37:45.802Z,61.59
2023-05-13T23:40:13.336Z,61.57
2023-05-13T23:42:40.471Z,61.55
2023-05-13T23:45:08.016Z,61.37
2023-05-13T23:47:35.066Z,61.57
2023-05-13T23:50:02.944Z,61.48
2023-05-13T23:52:30.036Z,61.41
2023-05-13T23:54:57.063Z,61.52
2023-05-13T23:57:24.273Z,61.40
2023-05-13T23:59:51.428Z,61.52
